<?xml version="1.0" encoding="UTF-8" standalone="no" ?>
<gpx xmlns="http://www.topografix.com/GPX/1/1" xmlns:xsi="http://www.w3.org/2001/XMLSchema-instance" xsi:schemaLocation="http://www.topografix.com/GPX/1/1 http://www.topografix.com/GPX/1/1/gpx.xsd" version="1.1" creator="VisuGPX - https://www.visugpx.com">
  <metadata>
    <name>SER - La marre Asse</name>
    <desc><![CDATA[SER - La marre Asse]]></desc>
  </metadata>
  <trk>
    <name><![CDATA[SER - La marre Asse_3]]></name>
    <trkseg>
      <trkpt lat="49.32556" lon="1.13685">
        <ele>25.844</ele>
        <time>1998-01-28T14:56:00Z</time>
      </trkpt>
      <trkpt lat="49.32475" lon="1.13801">
        <ele>21.899</ele>
        <time>1998-01-28T14:57:03Z</time>
      </trkpt>
      <trkpt lat="49.32291" lon="1.14208">
        <ele>52</ele>
        <time>1998-01-28T14:57:47Z</time>
      </trkpt>
      <trkpt lat="49.32197" lon="1.14525">
        <ele>23</ele>
        <time>1998-01-28T14:58:09Z</time>
      </trkpt>
      <trkpt lat="49.32177" lon="1.14554">
        <ele>22</ele>
        <time>1998-01-28T14:58:23Z</time>
      </trkpt>
      <trkpt lat="49.32122" lon="1.14781">
        <ele>17</ele>
        <time>1998-01-28T14:58:52Z</time>
      </trkpt>
      <trkpt lat="49.3205" lon="1.14816">
        <ele>14</ele>
        <time>1998-01-28T14:59:05Z</time>
      </trkpt>
      <trkpt lat="49.31919" lon="1.148">
        <ele>11</ele>
        <time>1998-01-28T14:59:26Z</time>
      </trkpt>
      <trkpt lat="49.31911" lon="1.15073">
        <ele>10</ele>
        <time>1998-01-28T15:00:02Z</time>
      </trkpt>
      <trkpt lat="49.31879" lon="1.15347">
        <ele>8</ele>
        <time>1998-01-28T15:00:39Z</time>
      </trkpt>
      <trkpt lat="49.31898" lon="1.158">
        <ele>10</ele>
        <time>1998-01-28T15:01:39Z</time>
      </trkpt>
      <trkpt lat="49.31854" lon="1.15842">
        <ele>9</ele>
        <time>1998-01-28T15:01:49Z</time>
      </trkpt>
      <trkpt lat="49.31784" lon="1.15866">
        <ele>9</ele>
        <time>1998-01-28T15:02:05Z</time>
      </trkpt>
      <trkpt lat="49.31561" lon="1.15874">
        <ele>10</ele>
        <time>1998-01-28T15:03:00Z</time>
      </trkpt>
      <trkpt lat="49.31145" lon="1.15785">
        <ele>8</ele>
        <time>1998-01-28T15:04:23Z</time>
      </trkpt>
      <trkpt lat="49.30965" lon="1.15804">
        <ele>9</ele>
        <time>1998-01-28T15:05:03Z</time>
      </trkpt>
      <trkpt lat="49.30473" lon="1.15899">
        <ele>17</ele>
        <time>1998-01-28T15:07:35Z</time>
      </trkpt>
      <trkpt lat="49.30382" lon="1.15934">
        <ele>22</ele>
        <time>1998-01-28T15:08:09Z</time>
      </trkpt>
      <trkpt lat="49.30301" lon="1.16025">
        <ele>24</ele>
        <time>1998-01-28T15:08:44Z</time>
      </trkpt>
      <trkpt lat="49.30211" lon="1.16057">
        <ele>25</ele>
        <time>1998-01-28T15:09:11Z</time>
      </trkpt>
      <trkpt lat="49.30029" lon="1.1601">
        <ele>26</ele>
        <time>1998-01-28T15:10:06Z</time>
      </trkpt>
      <trkpt lat="49.29979" lon="1.15979">
        <ele>28</ele>
        <time>1998-01-28T15:10:22Z</time>
      </trkpt>
      <trkpt lat="49.2979" lon="1.1571">
        <ele>39</ele>
        <time>1998-01-28T15:12:13Z</time>
      </trkpt>
      <trkpt lat="49.29708" lon="1.15657">
        <ele>47</ele>
        <time>1998-01-28T15:13:03Z</time>
      </trkpt>
      <trkpt lat="49.29613" lon="1.15618">
        <ele>53</ele>
        <time>1998-01-28T15:13:54Z</time>
      </trkpt>
      <trkpt lat="49.29576" lon="1.15572">
        <ele>56</ele>
        <time>1998-01-28T15:14:13Z</time>
      </trkpt>
      <trkpt lat="49.29559" lon="1.15574">
        <ele>56</ele>
        <time>1998-01-28T15:14:17Z</time>
      </trkpt>
      <trkpt lat="49.2952" lon="1.15628">
        <ele>57</ele>
        <time>1998-01-28T15:14:29Z</time>
      </trkpt>
      <trkpt lat="49.29494" lon="1.15635">
        <ele>59</ele>
        <time>1998-01-28T15:14:36Z</time>
      </trkpt>
      <trkpt lat="49.28941" lon="1.15709">
        <ele>62</ele>
        <time>1998-01-28T15:17:15Z</time>
      </trkpt>
      <trkpt lat="49.29069" lon="1.14585">
        <ele>46</ele>
        <time>1998-01-28T15:19:46Z</time>
      </trkpt>
      <trkpt lat="49.29157" lon="1.13941">
        <ele>57</ele>
        <time>1998-01-28T15:21:37Z</time>
      </trkpt>
      <trkpt lat="49.29314" lon="1.12515">
        <ele>49</ele>
        <time>1998-01-28T15:25:19Z</time>
      </trkpt>
      <trkpt lat="49.29336" lon="1.12428">
        <ele>47</ele>
        <time>1998-01-28T15:25:31Z</time>
      </trkpt>
      <trkpt lat="49.29396" lon="1.12342">
        <ele>46</ele>
        <time>1998-01-28T15:25:48Z</time>
      </trkpt>
      <trkpt lat="49.29365" lon="1.12144">
        <ele>42</ele>
        <time>1998-01-28T15:26:21Z</time>
      </trkpt>
      <trkpt lat="49.28895" lon="1.11556">
        <ele>49</ele>
        <time>1998-01-28T15:29:09Z</time>
      </trkpt>
      <trkpt lat="49.28937" lon="1.11522">
        <ele>48</ele>
        <time>1998-01-28T15:30:33Z</time>
      </trkpt>
      <trkpt lat="49.2905" lon="1.11503">
        <ele>44</ele>
        <time>1998-01-28T15:31:03Z</time>
      </trkpt>
      <trkpt lat="49.29168" lon="1.1145">
        <ele>39</ele>
        <time>1998-01-28T15:31:34Z</time>
      </trkpt>
      <trkpt lat="49.29162" lon="1.11426">
        <ele>41</ele>
        <time>1998-01-28T15:31:41Z</time>
      </trkpt>
      <trkpt lat="49.29028" lon="1.11253">
        <ele>45</ele>
        <time>1998-01-28T15:32:38Z</time>
      </trkpt>
      <trkpt lat="49.28882" lon="1.11075">
        <ele>45</ele>
        <time>1998-01-28T15:33:38Z</time>
      </trkpt>
      <trkpt lat="49.28847" lon="1.11107">
        <ele>50</ele>
        <time>1998-01-28T15:33:54Z</time>
      </trkpt>
      <trkpt lat="49.28837" lon="1.11149">
        <ele>52</ele>
        <time>1998-01-28T15:34:11Z</time>
      </trkpt>
      <trkpt lat="49.28727" lon="1.11342">
        <ele>60</ele>
        <time>1998-01-28T15:35:09Z</time>
      </trkpt>
      <trkpt lat="49.2853" lon="1.11096">
        <ele>68</ele>
        <time>1998-01-28T15:36:49Z</time>
      </trkpt>
      <trkpt lat="49.28556" lon="1.1066">
        <ele>57</ele>
        <time>1998-01-28T15:38:16Z</time>
      </trkpt>
      <trkpt lat="49.27888" lon="1.09807">
        <ele>19.674</ele>
        <time>1998-01-28T15:43:22Z</time>
      </trkpt>
      <trkpt lat="49.2788" lon="1.09759">
        <ele>19.419</ele>
        <time>1998-01-28T15:46:31Z</time>
      </trkpt>
      <trkpt lat="49.27921" lon="1.09522">
        <ele>7.019</ele>
        <time>1998-01-28T15:47:04Z</time>
      </trkpt>
      <trkpt lat="49.27926" lon="1.09343">
        <ele>62</ele>
        <time>1998-01-28T15:47:22Z</time>
      </trkpt>
      <trkpt lat="49.27653" lon="1.09004">
        <ele>4.289</ele>
        <time>1998-01-28T15:48:49Z</time>
      </trkpt>
      <trkpt lat="49.27614" lon="1.08913">
        <ele>3.017</ele>
        <time>1998-01-28T15:49:20Z</time>
      </trkpt>
      <trkpt lat="49.27401" lon="1.08673">
        <ele>60</ele>
        <time>1998-01-28T15:50:06Z</time>
      </trkpt>
      <trkpt lat="49.27457" lon="1.08511">
        <ele>57</ele>
        <time>1998-01-28T15:50:38Z</time>
      </trkpt>
      <trkpt lat="49.27512" lon="1.08274">
        <ele>52</ele>
        <time>1998-01-28T15:51:07Z</time>
      </trkpt>
      <trkpt lat="49.27516" lon="1.08187">
        <ele>50</ele>
        <time>1998-01-28T15:51:17Z</time>
      </trkpt>
      <trkpt lat="49.27289" lon="1.07861">
        <ele>54</ele>
        <time>1998-01-28T15:52:37Z</time>
      </trkpt>
      <trkpt lat="49.27248" lon="1.07861">
        <ele>57</ele>
        <time>1998-01-28T15:52:53Z</time>
      </trkpt>
      <trkpt lat="49.27215" lon="1.07785">
        <ele>55</ele>
        <time>1998-01-28T15:53:10Z</time>
      </trkpt>
      <trkpt lat="49.27119" lon="1.07639">
        <ele>55</ele>
        <time>1998-01-28T15:53:42Z</time>
      </trkpt>
      <trkpt lat="49.26996" lon="1.07493">
        <ele>53</ele>
        <time>1998-01-28T15:54:18Z</time>
      </trkpt>
      <trkpt lat="49.26966" lon="1.07401">
        <ele>54</ele>
        <time>1998-01-28T15:54:34Z</time>
      </trkpt>
      <trkpt lat="49.26973" lon="1.0738">
        <ele>54</ele>
        <time>1998-01-28T15:54:38Z</time>
      </trkpt>
      <trkpt lat="49.27378" lon="1.07081">
        <ele>37</ele>
        <time>1998-01-28T15:56:01Z</time>
      </trkpt>
      <trkpt lat="49.27601" lon="1.06892">
        <ele>31</ele>
        <time>1998-01-28T15:57:30Z</time>
      </trkpt>
      <trkpt lat="49.27625" lon="1.06848">
        <ele>31</ele>
        <time>1998-01-28T15:57:39Z</time>
      </trkpt>
      <trkpt lat="49.27518" lon="1.06683">
        <ele>35</ele>
        <time>1998-01-28T15:58:18Z</time>
      </trkpt>
      <trkpt lat="49.27065" lon="1.061">
        <ele>34</ele>
        <time>1998-01-28T16:00:23Z</time>
      </trkpt>
      <trkpt lat="49.27039" lon="1.0602">
        <ele>34</ele>
        <time>1998-01-28T16:00:37Z</time>
      </trkpt>
      <trkpt lat="49.26975" lon="1.05928">
        <ele>38</ele>
        <time>1998-01-28T16:00:59Z</time>
      </trkpt>
      <trkpt lat="49.26785" lon="1.05556">
        <ele>37</ele>
        <time>1998-01-28T16:02:22Z</time>
      </trkpt>
      <trkpt lat="49.26782" lon="1.05527">
        <ele>37</ele>
        <time>1998-01-28T16:02:27Z</time>
      </trkpt>
      <trkpt lat="49.26799" lon="1.05384">
        <ele>36</ele>
        <time>1998-01-28T16:02:51Z</time>
      </trkpt>
      <trkpt lat="49.2693" lon="1.05138">
        <ele>32</ele>
        <time>1998-01-28T16:03:28Z</time>
      </trkpt>
      <trkpt lat="49.27007" lon="1.05123">
        <ele>32</ele>
        <time>1998-01-28T16:03:42Z</time>
      </trkpt>
      <trkpt lat="49.27085" lon="1.05045">
        <ele>29</ele>
        <time>1998-01-28T16:03:57Z</time>
      </trkpt>
      <trkpt lat="49.27182" lon="1.05037">
        <ele>29</ele>
        <time>1998-01-28T16:04:16Z</time>
      </trkpt>
      <trkpt lat="49.2726" lon="1.05065">
        <ele>29</ele>
        <time>1998-01-28T16:04:31Z</time>
      </trkpt>
      <trkpt lat="49.27449" lon="1.05022">
        <ele>30</ele>
        <time>1998-01-28T16:05:09Z</time>
      </trkpt>
      <trkpt lat="49.2762" lon="1.05022">
        <ele>26</ele>
        <time>1998-01-28T16:05:40Z</time>
      </trkpt>
      <trkpt lat="49.27756" lon="1.0497">
        <ele>21</ele>
        <time>1998-01-28T16:06:08Z</time>
      </trkpt>
      <trkpt lat="49.27978" lon="1.05025">
        <ele>18</ele>
        <time>1998-01-28T16:06:44Z</time>
      </trkpt>
      <trkpt lat="49.28207" lon="1.04987">
        <ele>18</ele>
        <time>1998-01-28T16:07:27Z</time>
      </trkpt>
      <trkpt lat="49.28487" lon="1.04919">
        <ele>14</ele>
        <time>1998-01-28T16:08:05Z</time>
      </trkpt>
      <trkpt lat="49.28702" lon="1.04765">
        <ele>10</ele>
        <time>1998-01-28T16:08:39Z</time>
      </trkpt>
      <trkpt lat="49.28869" lon="1.04711">
        <ele>9</ele>
        <time>1998-01-28T16:09:06Z</time>
      </trkpt>
      <trkpt lat="49.29081" lon="1.04608">
        <ele>8</ele>
        <time>1998-01-28T16:09:47Z</time>
      </trkpt>
      <trkpt lat="49.29099" lon="1.04603">
        <ele>8</ele>
        <time>1998-01-28T16:09:52Z</time>
      </trkpt>
      <trkpt lat="49.29101" lon="1.04615">
        <ele>8</ele>
        <time>1998-01-28T16:09:57Z</time>
      </trkpt>
      <trkpt lat="49.29116" lon="1.04582">
        <ele>8</ele>
        <time>1998-01-28T16:10:13Z</time>
      </trkpt>
      <trkpt lat="49.29458" lon="1.04399">
        <ele>5</ele>
        <time>1998-01-28T16:11:25Z</time>
      </trkpt>
      <trkpt lat="49.29401" lon="1.03801">
        <ele>5</ele>
        <time>1998-01-28T16:12:51Z</time>
      </trkpt>
      <trkpt lat="49.29394" lon="1.03548">
        <ele>7</ele>
        <time>1998-01-28T16:13:25Z</time>
      </trkpt>
      <trkpt lat="49.29301" lon="1.03095">
        <ele>5</ele>
        <time>1998-01-28T16:14:31Z</time>
      </trkpt>
      <trkpt lat="49.29272" lon="1.03028">
        <ele>4</ele>
        <time>1998-01-28T16:14:43Z</time>
      </trkpt>
      <trkpt lat="49.29278" lon="1.02977">
        <ele>4</ele>
        <time>1998-01-28T16:14:51Z</time>
      </trkpt>
      <trkpt lat="49.29244" lon="1.02768">
        <ele>4</ele>
        <time>1998-01-28T16:15:23Z</time>
      </trkpt>
      <trkpt lat="49.2922" lon="1.02289">
        <ele>5</ele>
        <time>1998-01-28T16:16:26Z</time>
      </trkpt>
      <trkpt lat="49.29249" lon="1.01269">
        <ele>3</ele>
        <time>1998-01-28T16:18:39Z</time>
      </trkpt>
      <trkpt lat="49.29213" lon="1.01217">
        <ele>5</ele>
        <time>1998-01-28T16:18:59Z</time>
      </trkpt>
      <trkpt lat="49.29127" lon="1.01173">
        <ele>8</ele>
        <time>1998-01-28T16:19:20Z</time>
      </trkpt>
      <trkpt lat="49.29146" lon="1.01012">
        <ele>11</ele>
        <time>1998-01-28T16:20:17Z</time>
      </trkpt>
      <trkpt lat="49.2922" lon="1.01016">
        <ele>9</ele>
        <time>1998-01-28T16:20:40Z</time>
      </trkpt>
      <trkpt lat="49.29721" lon="1.0113">
        <ele>15</ele>
        <time>1998-01-28T16:22:14Z</time>
      </trkpt>
      <trkpt lat="49.29729" lon="1.01283">
        <ele>16</ele>
        <time>1998-01-28T16:22:37Z</time>
      </trkpt>
      <trkpt lat="49.29747" lon="1.0127">
        <ele>16</ele>
        <time>1998-01-28T16:22:44Z</time>
      </trkpt>
      <trkpt lat="49.29881" lon="1.01302">
        <ele>19</ele>
        <time>1998-01-28T16:23:17Z</time>
      </trkpt>
      <trkpt lat="49.29914" lon="1.01286">
        <ele>18</ele>
        <time>1998-01-28T16:23:25Z</time>
      </trkpt>
      <trkpt lat="49.2993" lon="1.01318">
        <ele>18</ele>
        <time>1998-01-28T16:23:43Z</time>
      </trkpt>
      <trkpt lat="49.29941" lon="1.01313">
        <ele>18</ele>
        <time>1998-01-28T16:24:14Z</time>
      </trkpt>
      <trkpt lat="49.29928" lon="1.01436">
        <ele>19</ele>
        <time>1998-01-28T16:24:31Z</time>
      </trkpt>
      <trkpt lat="49.29796" lon="1.01415">
        <ele>20</ele>
        <time>1998-01-28T16:25:06Z</time>
      </trkpt>
      <trkpt lat="49.29731" lon="1.01417">
        <ele>18</ele>
        <time>1998-01-28T16:25:27Z</time>
      </trkpt>
      <trkpt lat="49.29727" lon="1.01429">
        <ele>18</ele>
        <time>1998-01-28T16:25:31Z</time>
      </trkpt>
      <trkpt lat="49.29702" lon="1.01932">
        <ele>20</ele>
        <time>1998-01-28T16:27:15Z</time>
      </trkpt>
      <trkpt lat="49.29742" lon="1.02272">
        <ele>18</ele>
        <time>1998-01-28T16:28:18Z</time>
      </trkpt>
      <trkpt lat="49.29783" lon="1.02467">
        <ele>20</ele>
        <time>1998-01-28T16:28:50Z</time>
      </trkpt>
    </trkseg>
  </trk>
</gpx>